sensor_id;sensor_type;location;lat;lon;timestamp;pressure;altitude;pressure_sealevel;temperature;humidity
54270;BME280;40181;51.560;13.000;2023-03-21T00:01:35;100835.00;;;9.15;87.84
54270;BME280;40181;51.560;13.000;2023-03-21T00:04:04;100843.59;;;9.09;87.76
54270;BME280;40181;51.560;13.000;2023-03-21T00:06:33;100841.91;;;9.11;87.92
54270;BME280;40181;51.560;13.000;2023-03-21T00:09:03;100834.19;;;9.17;87.79
54270;BME280;40181;51.560;13.000;2023-03-21T00:11:32;100845.97;;;8.99;88.46
54270;BME280;40181;51.560;13.000;2023-03-21T00:14:01;100843.31;;;8.96;88.94
54270;BME280;40181;51.560;13.000;2023-03-21T00:16:35;100847.00;;;9.05;87.89
54270;BME280;40181;51.560;13.000;2023-03-21T00:19:05;100839.94;;;9.01;87.66
54270;BME280;40181;51.560;13.000;2023-03-21T00:21:34;100837.53;;;9.10;86.92
54270;BME280;40181;51.560;13.000;2023-03-21T00:24:07;100842.91;;;8.81;87.11
54270;BME280;40181;51.560;13.000;2023-03-21T00:26:36;100838.84;;;8.57;87.66
54270;BME280;40181;51.560;13.000;2023-03-21T00:29:05;100851.09;;;8.93;86.80
54270;BME280;40181;51.560;13.000;2023-03-21T00:31:37;100839.94;;;9.01;85.50
54270;BME280;40181;51.560;13.000;2023-03-21T00:34:06;100833.66;;;8.95;85.23
54270;BME280;40181;51.560;13.000;2023-03-21T00:36:35;100833.66;;;8.95;84.77
54270;BME280;40181;51.560;13.000;2023-03-21T00:39:04;100831.16;;;9.00;84.28
54270;BME280;40181;51.560;13.000;2023-03-21T00:41:34;100837.38;;;9.04;84.10
54270;BME280;40181;51.560;13.000;2023-03-21T00:44:04;100826.31;;;8.80;82.83
54270;BME280;40181;51.560;13.000;2023-03-21T00:46:33;100828.97;;;8.82;81.71
54270;BME280;40181;51.560;13.000;2023-03-21T00:49:05;100830.94;;;8.91;81.99
54270;BME280;40181;51.560;13.000;2023-03-21T00:51:34;100828.28;;;8.89;81.87
54270;BME280;40181;51.560;13.000;2023-03-21T00:54:03;100829.81;;;8.79;84.60
54270;BME280;40181;51.560;13.000;2023-03-21T00:56:32;100842.38;;;8.59;88.02
54270;BME280;40181;51.560;13.000;2023-03-21T00:59:01;100835.50;;;8.64;89.28
54270;BME280;40181;51.560;13.000;2023-03-21T01:01:31;100825.69;;;8.55;90.00
54270;BME280;40181;51.560;13.000;2023-03-21T01:04:00;100829.56;;;8.70;89.69
54270;BME280;40181;51.560;13.000;2023-03-21T01:06:36;100820.00;;;8.72;89.48
54270;BME280;40181;51.560;13.000;2023-03-21T01:09:06;100823.47;;;8.71;89.08
54270;BME280;40181;51.560;13.000;2023-03-21T01:11:39;100831.41;;;8.74;89.14
54270;BME280;40181;51.560;13.000;2023-03-21T01:14:09;100828.66;;;8.69;87.76
54270;BME280;40181;51.560;13.000;2023-03-21T01:16:39;100834.91;;;8.75;88.09
54270;BME280;40181;51.560;13.000;2023-03-21T01:19:12;100822.97;;;8.86;87.80
54270;BME280;40181;51.560;13.000;2023-03-21T01:21:45;100825.28;;;8.74;87.66
54270;BME280;40181;51.560;13.000;2023-03-21T01:24:14;100831.59;;;8.82;86.73
54270;BME280;40181;51.560;13.000;2023-03-21T01:26:43;100826.31;;;8.80;86.84
54270;BME280;40181;51.560;13.000;2023-03-21T01:29:12;100820.53;;;8.58;88.07
54270;BME280;40181;51.560;13.000;2023-03-21T01:31:41;100818.00;;;8.29;90.48
54270;BME280;40181;51.560;13.000;2023-03-21T01:34:11;100819.88;;;8.34;91.50
54270;BME280;40181;51.560;13.000;2023-03-21T01:36:40;100822.19;;;8.23;92.71
54270;BME280;40181;51.560;13.000;2023-03-21T01:39:12;100817.56;;;8.14;93.87
54270;BME280;40181;51.560;13.000;2023-03-21T01:41:41;100814.50;;;8.29;93.68
54270;BME280;40181;51.560;13.000;2023-03-21T01:44:14;100822.50;;;8.35;94.27
54270;BME280;40181;51.560;13.000;2023-03-21T01:46:46;100813.50;;;8.24;94.86
54270;BME280;40181;51.560;13.000;2023-03-21T01:49:20;100814.59;;;8.32;94.27
54270;BME280;40181;51.560;13.000;2023-03-21T01:51:55;100812.47;;;8.19;95.12
54270;BME280;40181;51.560;13.000;2023-03-21T01:54:31;100816.25;;;7.98;96.82
54270;BME280;40181;51.560;13.000;2023-03-21T01:57:04;100812.13;;;8.06;96.59
54270;BME280;40181;51.560;13.000;2023-03-21T01:59:40;100810.81;;;8.22;95.83
54270;BME280;40181;51.560;13.000;2023-03-21T02:02:14;100802.94;;;8.21;95.48
54270;BME280;40181;51.560;13.000;2023-03-21T02:04:48;100805.59;;;8.22;95.49
54270;BME280;40181;51.560;13.000;2023-03-21T02:07:24;100813.25;;;8.14;96.78
54270;BME280;40181;51.560;13.000;2023-03-21T02:09:58;100801.00;;;8.13;96.54
54270;BME280;40181;51.560;13.000;2023-03-21T02:12:29;100816.78;;;8.16;96.32
54270;BME280;40181;51.560;13.000;2023-03-21T02:14:59;100806.72;;;8.00;97.96
54270;BME280;40181;51.560;13.000;2023-03-21T02:17:32;100793.22;;;8.16;97.28
54270;BME280;40181;51.560;13.000;2023-03-21T02:20:21;100801.38;;;8.27;96.62
54270;BME280;40181;51.560;13.000;2023-03-21T02:26:45;100802.31;;;7.97;97.03
54270;BME280;40181;51.560;13.000;2023-03-21T02:36:12;100781.66;;;8.08;96.64
54270;BME280;40181;51.560;13.000;2023-03-21T02:38:53;100780.56;;;8.00;97.07
54270;BME280;40181;51.560;13.000;2023-03-21T02:41:32;100791.53;;;7.86;97.36
54270;BME280;40181;51.560;13.000;2023-03-21T02:44:10;100790.81;;;7.92;97.39
54270;BME280;40181;51.560;13.000;2023-03-21T02:46:49;100793.31;;;7.87;97.62
54270;BME280;40181;51.560;13.000;2023-03-21T02:49:23;100778.06;;;8.05;96.60
54270;BME280;40181;51.560;13.000;2023-03-21T02:51:56;100784.53;;;7.85;97.19
54270;BME280;40181;51.560;13.000;2023-03-21T02:54:30;100784.81;;;7.95;97.20
54270;BME280;40181;51.560;13.000;2023-03-21T02:57:01;100781.69;;;7.78;97.61
54270;BME280;40181;51.560;13.000;2023-03-21T02:59:31;100776.09;;;7.96;97.55
54270;BME280;40181;51.560;13.000;2023-03-21T03:02:01;100771.16;;;8.07;96.75
54270;BME280;40181;51.560;13.000;2023-03-21T03:04:31;100776.34;;;8.05;96.46
54270;BME280;40181;51.560;13.000;2023-03-21T03:07:12;100770.41;;;8.11;95.76
54270;BME280;40181;51.560;13.000;2023-03-21T03:10:20;100778.97;;;8.05;96.61
54270;BME280;40181;51.560;13.000;2023-03-21T03:13:01;100771.97;;;8.04;95.30
54270;BME280;40181;51.560;13.000;2023-03-21T03:15:37;100778.53;;;8.22;94.92
54270;BME280;40181;51.560;13.000;2023-03-21T03:18:18;100783.53;;;8.12;95.24
54270;BME280;40181;51.560;13.000;2023-03-21T03:20:58;100793.91;;;7.77;96.18
54270;BME280;40181;51.560;13.000;2023-03-21T03:23:35;100772.19;;;7.80;97.41
54270;BME280;40181;51.560;13.000;2023-03-21T03:26:16;100776.03;;;7.93;96.33
54270;BME280;40181;51.560;13.000;2023-03-21T03:28:50;100778.00;;;8.01;96.18
54270;BME280;40181;51.560;13.000;2023-03-21T03:31:24;100779.81;;;8.04;96.18
54270;BME280;40181;51.560;13.000;2023-03-21T03:33:59;100775.94;;;7.59;98.47
54270;BME280;40181;51.560;13.000;2023-03-21T03:36:37;100773.34;;;7.91;97.93
54270;BME280;40181;51.560;13.000;2023-03-21T03:39:09;100776.91;;;7.93;96.84
54270;BME280;40181;51.560;13.000;2023-03-21T03:41:44;100786.91;;;7.76;98.29
54270;BME280;40181;51.560;13.000;2023-03-21T03:44:16;100789.84;;;7.88;98.17
54270;BME280;40181;51.560;13.000;2023-03-21T03:46:49;100788.13;;;7.58;100.00
54270;BME280;40181;51.560;13.000;2023-03-21T03:49:23;100779.25;;;7.53;100.00
54270;BME280;40181;51.560;13.000;2023-03-21T03:51:58;100788.47;;;7.71;99.50
54270;BME280;40181;51.560;13.000;2023-03-21T03:54:32;100786.78;;;7.73;99.78
54270;BME280;40181;51.560;13.000;2023-03-21T03:57:08;100790.59;;;7.25;100.00
54270;BME280;40181;51.560;13.000;2023-03-21T03:59:39;100789.25;;;7.67;100.00
54270;BME280;40181;51.560;13.000;2023-03-21T04:02:11;100776.06;;;7.64;100.00
54270;BME280;40181;51.560;13.000;2023-03-21T04:04:41;100775.94;;;7.59;100.00
54270;BME280;40181;51.560;13.000;2023-03-21T04:07:12;100783.94;;;7.34;100.00
54270;BME280;40181;51.560;13.000;2023-03-21T04:09:41;100776.91;;;7.63;100.00
54270;BME280;40181;51.560;13.000;2023-03-21T04:12:13;100781.03;;;7.25;100.00
54270;BME280;40181;51.560;13.000;2023-03-21T04:14:42;100769.81;;;7.28;100.00
54270;BME280;40181;51.560;13.000;2023-03-21T04:17:11;100781.03;;;7.25;100.00
54270;BME280;40181;51.560;13.000;2023-03-21T04:19:40;100770.94;;;7.38;100.00
54270;BME280;40181;51.560;13.000;2023-03-21T04:22:09;100767.94;;;7.53;100.00
54270;BME280;40181;51.560;13.000;2023-03-21T04:24:39;100772.38;;;7.26;100.00
54270;BME280;40181;51.560;13.000;2023-03-21T04:27:09;100785.06;;;7.43;100.00
54270;BME280;40181;51.560;13.000;2023-03-21T04:29:41;100770.16;;;7.40;100.00
54270;BME280;40181;51.560;13.000;2023-03-21T04:32:10;100774.88;;;7.52;100.00
54270;BME280;40181;51.560;13.000;2023-03-21T04:34:44;100767.28;;;7.61;100.00
54270;BME280;40181;51.560;13.000;2023-03-21T04:37:14;100774.13;;;7.56;100.00
54270;BME280;40181;51.560;13.000;2023-03-21T04:39:44;100789.81;;;7.56;100.00
54270;BME280;40181;51.560;13.000;2023-03-21T04:42:17;100779.72;;;7.69;100.00
54270;BME280;40181;51.560;13.000;2023-03-21T04:44:47;100775.47;;;7.74;100.00
54270;BME280;40181;51.560;13.000;2023-03-21T04:47:16;100774.81;;;7.81;100.00
54270;BME280;40181;51.560;13.000;2023-03-21T04:49:46;100781.34;;;7.65;100.00
54270;BME280;40181;51.560;13.000;2023-03-21T04:52:16;100777.63;;;7.57;100.00
54270;BME280;40181;51.560;13.000;2023-03-21T04:54:45;100783.78;;;7.59;100.00
54270;BME280;40181;51.560;13.000;2023-03-21T04:57:17;100778.69;;;7.64;100.00
54270;BME280;40181;51.560;13.000;2023-03-21T04:59:46;100780.06;;;7.22;100.00
54270;BME280;40181;51.560;13.000;2023-03-21T05:02:15;100779.72;;;7.11;100.00
54270;BME280;40181;51.560;13.000;2023-03-21T05:04:44;100779.75;;;7.40;100.00
54270;BME280;40181;51.560;13.000;2023-03-21T05:07:13;100774.69;;;7.46;100.00
54270;BME280;40181;51.560;13.000;2023-03-21T05:09:42;100776.53;;;7.19;100.00
54270;BME280;40181;51.560;13.000;2023-03-21T05:12:11;100766.56;;;7.08;100.00
54270;BME280;40181;51.560;13.000;2023-03-21T05:14:45;100765.72;;;7.38;100.00
54270;BME280;40181;51.560;13.000;2023-03-21T05:17:14;100776.88;;;7.03;100.00
54270;BME280;40181;51.560;13.000;2023-03-21T05:19:49;100778.63;;;7.31;100.00
54270;BME280;40181;51.560;13.000;2023-03-21T05:22:21;100773.97;;;6.94;100.00
54270;BME280;40181;51.560;13.000;2023-03-21T05:24:51;100786.59;;;7.07;100.00
54270;BME280;40181;51.560;13.000;2023-03-21T05:27:21;100775.69;;;7.20;100.00
54270;BME280;40181;51.560;13.000;2023-03-21T05:30:14;100772.28;;;7.23;100.00
54270;BME280;40181;51.560;13.000;2023-03-21T05:32:45;100774.13;;;7.27;100.00
54270;BME280;40181;51.560;13.000;2023-03-21T05:35:15;100769.38;;;7.43;100.00
54270;BME280;40181;51.560;13.000;2023-03-21T05:37:44;100770.50;;;7.51;100.00
54270;BME280;40181;51.560;13.000;2023-03-21T05:40:13;100776.66;;;7.53;100.00
54270;BME280;40181;51.560;13.000;2023-03-21T05:42:42;100772.06;;;7.46;100.00
54270;BME280;40181;51.560;13.000;2023-03-21T05:45:15;100778.22;;;7.19;100.00
54270;BME280;40181;51.560;13.000;2023-03-21T05:47:44;100772.44;;;7.00;100.00
54270;BME280;40181;51.560;13.000;2023-03-21T05:50:13;100769.69;;;7.25;100.00
54270;BME280;40181;51.560;13.000;2023-03-21T05:52:42;100779.72;;;7.11;100.00
54270;BME280;40181;51.560;13.000;2023-03-21T05:55:14;100768.25;;;7.05;100.00
54270;BME280;40181;51.560;13.000;2023-03-21T05:57:43;100770.31;;;6.88;100.00
54270;BME280;40181;51.560;13.000;2023-03-21T06:00:17;100781.75;;;7.19;100.00
54270;BME280;40181;51.560;13.000;2023-03-21T06:02:46;100775.63;;;7.19;100.00
54270;BME280;40181;51.560;13.000;2023-03-21T06:05:16;100769.81;;;7.00;100.00
54270;BME280;40181;51.560;13.000;2023-03-21T06:07:45;100782.38;;;7.12;100.00
54270;BME280;40181;51.560;13.000;2023-03-21T06:10:14;100775.59;;;7.17;100.00
54270;BME280;40181;51.560;13.000;2023-03-21T06:12:43;100773.97;;;7.21;100.00
54270;BME280;40181;51.560;13.000;2023-03-21T06:15:15;100767.25;;;7.29;100.00
54270;BME280;40181;51.560;13.000;2023-03-21T06:17:44;100763.31;;;7.44;100.00
54270;BME280;40181;51.560;13.000;2023-03-21T06:20:13;100779.00;;;7.15;100.00
54270;BME280;40181;51.560;13.000;2023-03-21T06:22:43;100776.19;;;7.38;100.00
54270;BME280;40181;51.560;13.000;2023-03-21T06:25:12;100770.59;;;6.98;100.00
54270;BME280;40181;51.560;13.000;2023-03-21T06:27:42;100764.66;;;7.31;100.00
54270;BME280;40181;51.560;13.000;2023-03-21T06:30:12;100777.28;;;7.44;100.00
54270;BME280;40181;51.560;13.000;2023-03-21T06:32:44;100766.69;;;7.40;100.00
54270;BME280;40181;51.560;13.000;2023-03-21T06:35:13;100774.66;;;7.44;100.00
54270;BME280;40181;51.560;13.000;2023-03-21T06:37:42;100771.22;;;7.47;100.00
54270;BME280;40181;51.560;13.000;2023-03-21T06:40:13;100779.63;;;7.37;100.00
54270;BME280;40181;51.560;13.000;2023-03-21T06:42:45;100780.03;;;7.49;100.00
54270;BME280;40181;51.560;13.000;2023-03-21T06:45:18;100781.03;;;7.54;100.00
54270;BME280;40181;51.560;13.000;2023-03-21T06:47:47;100783.88;;;7.62;100.00
54270;BME280;40181;51.560;13.000;2023-03-21T06:50:17;100784.06;;;7.39;100.00
54270;BME280;40181;51.560;13.000;2023-03-21T06:52:46;100776.44;;;7.76;100.00
54270;BME280;40181;51.560;13.000;2023-03-21T06:55:15;100788.28;;;7.65;100.00
54270;BME280;40181;51.560;13.000;2023-03-21T06:57:50;100783.31;;;7.72;100.00
54270;BME280;40181;51.560;13.000;2023-03-21T07:00:23;100779.63;;;7.66;100.00
54270;BME280;40181;51.560;13.000;2023-03-21T07:02:52;100796.50;;;7.46;100.00
54270;BME280;40181;51.560;13.000;2023-03-21T07:05:22;100788.78;;;7.82;100.00
54270;BME280;40181;51.560;13.000;2023-03-21T07:07:51;100794.16;;;7.86;100.00
54270;BME280;40181;51.560;13.000;2023-03-21T07:10:20;100791.03;;;7.69;100.00
54270;BME280;40181;51.560;13.000;2023-03-21T07:12:49;100780.19;;;7.86;100.00
54270;BME280;40181;51.560;13.000;2023-03-21T07:15:18;100782.63;;;7.80;100.00
54270;BME280;40181;51.560;13.000;2023-03-21T07:17:50;100784.34;;;7.79;100.00
54270;BME280;40181;51.560;13.000;2023-03-21T07:20:19;100786.66;;;7.68;100.00
54270;BME280;40181;51.560;13.000;2023-03-21T07:22:48;100785.34;;;7.52;100.00
54270;BME280;40181;51.560;13.000;2023-03-21T07:25:18;100783.91;;;7.94;100.00
54270;BME280;40181;51.560;13.000;2023-03-21T07:27:47;100789.72;;;7.84;100.00
54270;BME280;40181;51.560;13.000;2023-03-21T07:30:17;100780.84;;;7.79;100.00
54270;BME280;40181;51.560;13.000;2023-03-21T07:32:48;100781.41;;;7.99;100.00
54270;BME280;40181;51.560;13.000;2023-03-21T07:35:19;100789.25;;;7.97;100.00
54270;BME280;40181;51.560;13.000;2023-03-21T07:37:48;100777.78;;;7.94;100.00
54270;BME280;40181;51.560;13.000;2023-03-21T07:40:17;100780.84;;;7.79;100.00
54270;BME280;40181;51.560;13.000;2023-03-21T07:42:47;100778.91;;;8.03;100.00
54270;BME280;40181;51.560;13.000;2023-03-21T07:45:17;100790.19;;;8.01;100.00
54270;BME280;40181;51.560;13.000;2023-03-21T07:47:52;100784.31;;;8.10;100.00
54270;BME280;40181;51.560;13.000;2023-03-21T07:50:21;100784.75;;;8.25;100.00
54270;BME280;40181;51.560;13.000;2023-03-21T07:52:51;100796.09;;;8.26;100.00
54270;BME280;40181;51.560;13.000;2023-03-21T07:55:20;100789.38;;;8.03;100.00
54270;BME280;40181;51.560;13.000;2023-03-21T07:57:49;100782.50;;;8.07;100.00
54270;BME280;40181;51.560;13.000;2023-03-21T08:00:20;100788.56;;;8.38;100.00
54270;BME280;40181;51.560;13.000;2023-03-21T08:02:54;100788.72;;;8.44;100.00
54270;BME280;40181;51.560;13.000;2023-03-21T08:05:26;100771.22;;;8.42;100.00
54270;BME280;40181;51.560;13.000;2023-03-21T08:07:56;100778.91;;;8.36;100.00
54270;BME280;40181;51.560;13.000;2023-03-21T08:10:26;100776.97;;;8.28;100.00
54270;BME280;40181;51.560;13.000;2023-03-21T08:12:55;100771.63;;;8.57;100.00
54270;BME280;40181;51.560;13.000;2023-03-21T08:15:24;100782.31;;;8.67;100.00
54270;BME280;40181;51.560;13.000;2023-03-21T08:17:57;100775.03;;;8.53;100.00
54270;BME280;40181;51.560;13.000;2023-03-21T08:20:26;100776.47;;;8.77;100.00
54270;BME280;40181;51.560;13.000;2023-03-21T08:22:56;100774.50;;;8.68;100.00
54270;BME280;40181;51.560;13.000;2023-03-21T08:25:25;100775.66;;;8.80;99.56
54270;BME280;40181;51.560;13.000;2023-03-21T08:27:55;100785.97;;;8.72;99.92
54270;BME280;40181;51.560;13.000;2023-03-21T08:30:26;100790.53;;;8.81;99.63
54270;BME280;40181;51.560;13.000;2023-03-21T08:32:59;100793.47;;;8.58;98.02
54270;BME280;40181;51.560;13.000;2023-03-21T08:35:29;100789.81;;;8.88;99.17
54270;BME280;40181;51.560;13.000;2023-03-21T08:38:00;100783.84;;;8.94;97.75
54270;BME280;40181;51.560;13.000;2023-03-21T08:40:30;100777.75;;;8.95;98.69
54270;BME280;40181;51.560;13.000;2023-03-21T08:43:00;100793.00;;;8.75;97.15
54270;BME280;40181;51.560;13.000;2023-03-21T08:45:29;100791.97;;;9.05;96.25
54270;BME280;40181;51.560;13.000;2023-03-21T08:48:01;100787.53;;;9.02;96.72
54270;BME280;40181;51.560;13.000;2023-03-21T08:50:30;100778.81;;;9.02;95.95
54270;BME280;40181;51.560;13.000;2023-03-21T08:52:59;100774.84;;;9.21;97.24
54270;BME280;40181;51.560;13.000;2023-03-21T08:55:28;100775.66;;;9.18;97.39
54270;BME280;40181;51.560;13.000;2023-03-21T08:58:00;100781.84;;;9.22;95.37
54270;BME280;40181;51.560;13.000;2023-03-21T09:00:29;100773.28;;;9.27;95.71
54270;BME280;40181;51.560;13.000;2023-03-21T09:03:01;100776.50;;;9.16;95.81
54270;BME280;40181;51.560;13.000;2023-03-21T09:05:30;100782.34;;;9.04;96.27
54270;BME280;40181;51.560;13.000;2023-03-21T09:08:00;100787.50;;;9.01;95.63
54270;BME280;40181;51.560;13.000;2023-03-21T09:10:29;100786.03;;;9.13;94.98
54270;BME280;40181;51.560;13.000;2023-03-21T09:12:59;100771.91;;;9.47;96.08
54270;BME280;40181;51.560;13.000;2023-03-21T09:15:28;100766.94;;;9.59;94.68
54270;BME280;40181;51.560;13.000;2023-03-21T09:17:58;100775.69;;;9.60;95.71
54270;BME280;40181;51.560;13.000;2023-03-21T09:20:37;100768.44;;;9.46;93.16
54270;BME280;40181;51.560;13.000;2023-03-21T09:23:07;100767.16;;;9.70;92.26
54270;BME280;40181;51.560;13.000;2023-03-21T09:25:37;100786.19;;;9.60;92.49
54270;BME280;40181;51.560;13.000;2023-03-21T09:28:07;100763.84;;;9.79;92.65
54270;BME280;40181;51.560;13.000;2023-03-21T09:30:37;100766.91;;;9.58;91.15
54270;BME280;40181;51.560;13.000;2023-03-21T09:33:09;100765.34;;;9.66;91.58
54270;BME280;40181;51.560;13.000;2023-03-21T09:35:45;100763.72;;;9.73;91.12
54270;BME280;40181;51.560;13.000;2023-03-21T09:38:14;100767.28;;;9.76;91.55
54270;BME280;40181;51.560;13.000;2023-03-21T09:40:57;100764.97;;;9.92;90.67
54270;BME280;40181;51.560;13.000;2023-03-21T09:43:44;100759.81;;;9.98;91.22
54270;BME280;40181;51.560;13.000;2023-03-21T09:46:26;100763.56;;;9.66;90.55
54270;BME280;40181;51.560;13.000;2023-03-21T09:49:04;100759.59;;;9.86;90.52
54270;BME280;40181;51.560;13.000;2023-03-21T09:51:37;100764.78;;;9.82;90.80
54270;BME280;40181;51.560;13.000;2023-03-21T09:54:14;100756.34;;;9.99;90.34
54270;BME280;40181;51.560;13.000;2023-03-21T09:56:48;100757.28;;;10.01;90.20
54270;BME280;40181;51.560;13.000;2023-03-21T09:59:22;100759.53;;;10.30;90.59
54270;BME280;40181;51.560;13.000;2023-03-21T10:01:56;100758.72;;;10.34;89.56
54270;BME280;40181;51.560;13.000;2023-03-21T10:04:29;100750.88;;;10.36;88.74
54270;BME280;40181;51.560;13.000;2023-03-21T10:07:00;100768.47;;;10.40;88.11
54270;BME280;40181;51.560;13.000;2023-03-21T10:09:30;100737.00;;;10.42;88.87
54270;BME280;40181;51.560;13.000;2023-03-21T10:12:06;100739.03;;;10.58;87.47
54270;BME280;40181;51.560;13.000;2023-03-21T10:14:44;100729.50;;;10.63;87.60
54270;BME280;40181;51.560;13.000;2023-03-21T10:17:21;100739.97;;;10.62;88.61
54270;BME280;40181;51.560;13.000;2023-03-21T10:20:10;100729.50;;;10.63;88.00
54270;BME280;40181;51.560;13.000;2023-03-21T10:22:42;100738.38;;;10.72;87.33
54270;BME280;40181;51.560;13.000;2023-03-21T10:25:15;100732.72;;;10.47;87.39
54270;BME280;40181;51.560;13.000;2023-03-21T10:27:47;100744.06;;;10.44;87.81
54270;BME280;40181;51.560;13.000;2023-03-21T10:30:27;100731.97;;;10.54;87.58
54270;BME280;40181;51.560;13.000;2023-03-21T10:33:03;100727.72;;;10.64;87.53
54270;BME280;40181;51.560;13.000;2023-03-21T10:35:38;100726.69;;;10.52;87.57
54270;BME280;40181;51.560;13.000;2023-03-21T10:38:13;100732.13;;;10.65;87.52
54270;BME280;40181;51.560;13.000;2023-03-21T10:40:43;100727.66;;;10.59;87.50
54270;BME280;40181;51.560;13.000;2023-03-21T10:43:19;100722.41;;;10.59;87.83
54270;BME280;40181;51.560;13.000;2023-03-21T10:46:08;100727.28;;;10.91;86.70
54270;BME280;40181;51.560;13.000;2023-03-21T10:48:41;100712.88;;;10.64;86.91
54270;BME280;40181;51.560;13.000;2023-03-21T10:51:18;100701.13;;;11.01;86.37
54270;BME280;40181;51.560;13.000;2023-03-21T10:53:51;100701.06;;;10.96;86.96
54270;BME280;40181;51.560;13.000;2023-03-21T10:56:24;100707.09;;;10.89;85.62
54270;BME280;40181;51.560;13.000;2023-03-21T10:58:56;100703.97;;;11.18;86.24
54270;BME280;40181;51.560;13.000;2023-03-21T11:01:28;100697.03;;;11.25;85.93
54270;BME280;40181;51.560;13.000;2023-03-21T11:04:07;100698.81;;;11.24;84.93
54270;BME280;40181;51.560;13.000;2023-03-21T11:06:43;100698.53;;;11.04;85.04
54270;BME280;40181;51.560;13.000;2023-03-21T11:09:20;100693.63;;;11.30;85.21
54270;BME280;40181;51.560;13.000;2023-03-21T11:11:53;100694.72;;;11.49;85.51
54270;BME280;40181;51.560;13.000;2023-03-21T11:14:35;100693.09;;;11.61;84.34
54270;BME280;40181;51.560;13.000;2023-03-21T11:17:21;100692.28;;;11.68;83.44
54270;BME280;40181;51.560;13.000;2023-03-21T11:19:53;100692.09;;;11.49;83.70
54270;BME280;40181;51.560;13.000;2023-03-21T11:22:30;100676.75;;;11.93;83.10
54270;BME280;40181;51.560;13.000;2023-03-21T11:25:07;100679.28;;;11.82;82.49
54270;BME280;40181;51.560;13.000;2023-03-21T11:27:46;100679.88;;;11.56;84.56
54270;BME280;40181;51.560;13.000;2023-03-21T11:30:20;100676.50;;;11.68;83.02
54270;BME280;40181;51.560;13.000;2023-03-21T11:32:53;100678.47;;;11.86;83.01
54270;BME280;40181;51.560;13.000;2023-03-21T11:35:27;100662.91;;;12.10;82.76
54270;BME280;40181;51.560;13.000;2023-03-21T11:38:04;100672.63;;;12.18;82.87
54270;BME280;40181;51.560;13.000;2023-03-21T11:40:51;100672.44;;;11.98;82.25
54270;BME280;40181;51.560;13.000;2023-03-21T11:43:26;100666.19;;;11.88;82.19
54270;BME280;40181;51.560;13.000;2023-03-21T11:45:58;100671.69;;;12.09;82.70
54270;BME280;40181;51.560;13.000;2023-03-21T11:48:28;100670.59;;;11.89;81.90
54270;BME280;40181;51.560;13.000;2023-03-21T11:51:00;100666.22;;;11.90;82.02
54270;BME280;40181;51.560;13.000;2023-03-21T11:53:42;100660.38;;;12.21;81.48
54270;BME280;40181;51.560;13.000;2023-03-21T11:56:19;100652.31;;;12.03;81.57
54270;BME280;40181;51.560;13.000;2023-03-21T11:59:04;100643.78;;;12.31;81.33
54270;BME280;40181;51.560;13.000;2023-03-21T12:01:51;100642.00;;;12.31;80.58
54270;BME280;40181;51.560;13.000;2023-03-21T12:04:37;100651.50;;;12.14;79.97
54270;BME280;40181;51.560;13.000;2023-03-21T12:07:21;100655.19;;;12.30;80.55
54270;BME280;40181;51.560;13.000;2023-03-21T12:10:17;100648.94;;;12.20;80.18
54270;BME280;40181;51.560;13.000;2023-03-21T12:13:29;100649.84;;;12.24;80.27
54270;BME280;40181;51.560;13.000;2023-03-21T12:16:10;100636.81;;;12.42;78.74
54270;BME280;40181;51.560;13.000;2023-03-21T12:19:00;100630.75;;;12.57;79.57
54270;BME280;40181;51.560;13.000;2023-03-21T12:21:57;100629.88;;;12.55;78.16
54270;BME280;40181;51.560;13.000;2023-03-21T12:24:37;100618.44;;;12.49;78.46
54270;BME280;40181;51.560;13.000;2023-03-21T12:27:18;100618.34;;;12.35;79.03
54270;BME280;40181;51.560;13.000;2023-03-21T12:30:09;100624.50;;;12.37;78.96
54270;BME280;40181;51.560;13.000;2023-03-21T12:32:52;100614.94;;;12.56;78.72
54270;BME280;40181;51.560;13.000;2023-03-21T12:35:53;100612.31;;;12.57;78.92
54270;BME280;40181;51.560;13.000;2023-03-21T12:38:38;100609.59;;;12.47;77.99
54270;BME280;40181;51.560;13.000;2023-03-21T12:41:22;100599.16;;;12.62;78.82
54270;BME280;40181;51.560;13.000;2023-03-21T12:44:00;100604.56;;;12.82;77.90
54270;BME280;40181;51.560;13.000;2023-03-21T12:46:36;100596.63;;;12.79;77.34
54270;BME280;40181;51.560;13.000;2023-03-21T12:49:12;100592.13;;;12.64;77.54
54270;BME280;40181;51.560;13.000;2023-03-21T12:51:46;100588.72;;;12.85;77.42
54270;BME280;40181;51.560;13.000;2023-03-21T12:54:23;100587.84;;;12.83;77.46
54270;BME280;40181;51.560;13.000;2023-03-21T12:56:58;100579.84;;;12.63;76.87
54270;BME280;40181;51.560;13.000;2023-03-21T12:59:38;100574.69;;;12.86;76.70
54270;BME280;40181;51.560;13.000;2023-03-21T13:02:17;100569.50;;;13.04;76.09
54270;BME280;40181;51.560;13.000;2023-03-21T13:04:57;100567.78;;;13.29;75.46
54270;BME280;40181;51.560;13.000;2023-03-21T13:07:32;100559.03;;;13.33;75.95
54270;BME280;40181;51.560;13.000;2023-03-21T13:10:11;100555.53;;;13.51;75.02
54270;BME280;40181;51.560;13.000;2023-03-21T13:12:57;100551.16;;;13.74;74.01
54270;BME280;40181;51.560;13.000;2023-03-21T13:15:54;100544.13;;;13.46;74.39
54270;BME280;40181;51.560;13.000;2023-03-21T13:18:38;100538.84;;;13.68;74.76
54270;BME280;40181;51.560;13.000;2023-03-21T13:21:19;100541.50;;;13.68;75.72
54270;BME280;40181;51.560;13.000;2023-03-21T13:23:59;100527.38;;;13.95;73.80
54270;BME280;40181;51.560;13.000;2023-03-21T13:26:37;100530.94;;;13.74;73.19